createdAt,value
2018-11-13T00:00:21.410Z,76.65
2018-11-13T00:02:50.365Z,76.63
2018-11-13T00:05:18.438Z,76.48
2018-11-13T00:07:46.871Z,76.21
2018-11-13T00:10:14.971Z,75.77
2018-11-13T00:12:43.207Z,75.29
2018-11-13T00:15:12.101Z,74.75
2018-11-13T00:17:40.459Z,75.14
2018-11-13T00:20:10.735Z,74.95
2018-11-13T00:22:38.988Z,75.00
2018-11-13T00:25:08.692Z,75.09
2018-11-13T00:27:36.874Z,76.10
2018-11-13T00:30:06.659Z,75.60
2018-11-13T00:32:34.635Z,76.63
2018-11-13T00:35:03.040Z,76.29
2018-11-13T00:37:31.323Z,76.10
2018-11-13T00:39:59.863Z,76.12
2018-11-13T00:42:28.101Z,76.03
2018-11-13T00:44:56.579Z,75.70
2018-11-13T00:47:24.720Z,75.60
2018-11-13T00:49:53.106Z,76.42
2018-11-13T00:52:21.403Z,76.13
2018-11-13T00:54:49.786Z,75.68
2018-11-13T00:57:18.143Z,75.32
2018-11-13T00:59:46.651Z,75.29
2018-11-13T01:02:14.891Z,75.18
2018-11-13T01:04:43.342Z,75.04
2018-11-13T01:07:12.196Z,75.14
2018-11-13T01:09:40.167Z,74.95
2018-11-13T01:12:08.382Z,75.31
2018-11-13T01:14:36.431Z,74.90
2018-11-13T01:17:04.372Z,76.03
2018-11-13T01:19:32.618Z,76.37
2018-11-13T01:22:00.866Z,75.72
2018-11-13T01:24:29.293Z,75.65
2018-11-13T01:26:57.454Z,75.91
2018-11-13T01:29:25.745Z,75.94
2018-11-13T01:31:54.035Z,76.06
2018-11-13T01:34:22.273Z,76.21
2018-11-13T01:36:50.735Z,76.57
2018-11-13T01:39:18.827Z,76.48
2018-11-13T01:41:47.642Z,77.15
2018-11-13T01:44:15.625Z,77.14
2018-11-13T01:46:44.112Z,77.32
2018-11-13T01:49:12.351Z,77.67
2018-11-13T01:51:40.807Z,78.86
2018-11-13T01:54:09.194Z,79.32
2018-11-13T01:56:37.389Z,78.97
2018-11-13T01:59:05.669Z,78.10
2018-11-13T02:01:34.148Z,78.13
2018-11-13T02:04:02.398Z,78.75
2018-11-13T02:06:30.931Z,78.22
2018-11-13T02:08:59.199Z,81.25
2018-11-13T02:11:27.637Z,78.82
2018-11-13T02:13:55.939Z,78.82
2018-11-13T02:16:24.051Z,78.27
2018-11-13T02:18:52.492Z,77.55
2018-11-13T02:21:20.735Z,77.47
2018-11-13T02:23:49.092Z,77.27
2018-11-13T02:26:17.263Z,77.62
2018-11-13T02:28:45.170Z,76.86
2018-11-13T02:31:13.716Z,76.03
2018-11-13T02:33:41.936Z,76.42
2018-11-13T02:36:10.216Z,76.34
2018-11-13T02:38:38.501Z,76.41
2018-11-13T02:41:06.915Z,76.67
2018-11-13T02:43:34.983Z,76.30
2018-11-13T02:46:03.169Z,75.89
2018-11-13T02:48:31.358Z,75.71
2018-11-13T02:51:00.136Z,75.85
2018-11-13T02:53:28.318Z,75.45
2018-11-13T02:55:56.388Z,75.72
2018-11-13T02:58:24.303Z,75.80
2018-11-13T03:00:52.573Z,76.16
2018-11-13T03:03:21.045Z,76.43
2018-11-13T03:05:49.300Z,76.35
2018-11-13T03:08:17.622Z,76.96
2018-11-13T03:10:46.091Z,77.04
2018-11-13T03:13:14.592Z,77.86
2018-11-13T03:15:42.880Z,77.11
2018-11-13T03:18:11.047Z,76.60
2018-11-13T03:20:39.428Z,76.50
2018-11-13T03:23:07.564Z,76.25
2018-11-13T03:25:35.748Z,76.55
2018-11-13T03:28:04.039Z,76.75
2018-11-13T03:30:32.474Z,76.52
2018-11-13T03:33:00.743Z,76.50
2018-11-13T03:35:29.188Z,76.11
2018-11-13T03:37:57.543Z,76.39
2018-11-13T03:40:25.993Z,75.92
2018-11-13T03:42:54.242Z,76.06
2018-11-13T03:45:22.173Z,75.86
2018-11-13T03:47:50.392Z,75.66
2018-11-13T03:50:19.755Z,75.80
2018-11-13T03:52:48.280Z,75.43
2018-11-13T03:55:17.124Z,75.58
2018-11-13T03:57:46.172Z,75.65
2018-11-13T04:00:15.665Z,75.40
2018-11-13T04:02:43.918Z,76.15
2018-11-13T04:05:13.399Z,75.84
2018-11-13T04:07:45.863Z,76.28
2018-11-13T04:10:15.186Z,76.70
2018-11-13T04:12:43.786Z,76.39
2018-11-13T04:15:14.272Z,76.45
2018-11-13T04:17:42.344Z,76.57
2018-11-13T04:20:12.369Z,76.46
2018-11-13T04:22:41.126Z,77.20
2018-11-13T04:25:09.332Z,76.79
2018-11-13T04:27:37.463Z,76.67
2018-11-13T04:30:06.760Z,77.22
2018-11-13T04:32:34.907Z,77.23
2018-11-13T04:35:02.897Z,77.39
2018-11-13T04:37:30.895Z,78.07
2018-11-13T04:39:59.303Z,78.65
2018-11-13T04:42:27.403Z,77.67
2018-11-13T04:44:55.975Z,76.83
2018-11-13T04:47:24.191Z,77.21
2018-11-13T04:49:52.484Z,77.40
2018-11-13T04:52:20.792Z,77.30
2018-11-13T04:54:49.104Z,77.22
2018-11-13T04:57:17.242Z,77.01
2018-11-13T04:59:45.404Z,77.45
2018-11-13T05:02:13.630Z,77.35
2018-11-13T05:04:41.894Z,77.41
2018-11-13T05:07:10.220Z,78.28
2018-11-13T05:09:38.440Z,78.09
2018-11-13T05:12:06.714Z,77.46
2018-11-13T05:14:35.243Z,77.75
2018-11-13T05:17:03.520Z,79.38
2018-11-13T05:19:31.749Z,79.03
2018-11-13T05:22:00.052Z,78.52
2018-11-13T05:24:28.611Z,78.42
2018-11-13T05:26:56.735Z,77.68
2018-11-13T05:29:24.900Z,77.34
2018-11-13T05:31:53.111Z,77.17
2018-11-13T05:34:21.408Z,77.26
2018-11-13T05:36:49.754Z,77.06
2018-11-13T05:39:17.935Z,77.48
2018-11-13T05:41:46.269Z,76.89
2018-11-13T05:44:14.507Z,77.05
2018-11-13T05:46:42.595Z,76.79
2018-11-13T05:49:10.877Z,76.19
2018-11-13T05:51:39.404Z,74.59
2018-11-13T05:54:07.599Z,74.77
2018-11-13T05:56:35.388Z,75.31
2018-11-13T05:59:03.243Z,75.53
2018-11-13T06:01:31.095Z,74.95
2018-11-13T06:03:58.835Z,74.58
2018-11-13T06:06:26.610Z,69.64
2018-11-13T06:08:54.316Z,70.00
2018-11-13T06:11:22.114Z,72.21
2018-11-13T06:13:49.898Z,70.69
2018-11-13T06:16:17.701Z,73.11
2018-11-13T06:18:45.493Z,71.01
2018-11-13T06:21:13.294Z,66.71
2018-11-13T06:23:41.062Z,62.66
2018-11-13T06:26:08.811Z,64.18
2018-11-13T06:28:36.588Z,62.13
2018-11-13T06:31:04.624Z,62.66
2018-11-13T06:33:32.387Z,58.40
2018-11-13T06:36:00.144Z,54.91
2018-11-13T06:38:28.374Z,52.12
2018-11-13T06:40:56.367Z,50.23
2018-11-13T06:43:24.799Z,50.97
2018-11-13T06:45:52.827Z,47.85
2018-11-13T06:48:21.267Z,48.78
2018-11-13T06:50:49.569Z,49.22
2018-11-13T06:53:18.026Z,48.06
2018-11-13T06:55:49.882Z,50.20
2018-11-13T06:58:18.284Z,51.10
2018-11-13T07:00:46.596Z,51.88
2018-11-13T07:03:15.074Z,54.60
2018-11-13T07:05:43.360Z,56.30
2018-11-13T07:08:11.791Z,58.48
2018-11-13T07:10:40.230Z,58.52
2018-11-13T07:13:08.592Z,58.85
2018-11-13T07:15:36.787Z,59.06
2018-11-13T07:18:05.343Z,59.12
2018-11-13T07:20:34.511Z,59.88
2018-11-13T07:23:02.711Z,59.67
2018-11-13T07:25:31.312Z,58.22
2018-11-13T07:27:59.483Z,59.17
2018-11-13T07:30:28.020Z,58.12
2018-11-13T07:32:56.183Z,59.16
2018-11-13T07:35:24.478Z,58.26
2018-11-13T07:37:56.910Z,58.13
2018-11-13T07:40:24.987Z,59.77
2018-11-13T07:42:53.467Z,59.15
2018-11-13T07:45:21.720Z,60.23
2018-11-13T07:47:50.596Z,60.08
2018-11-13T07:50:18.220Z,59.46
2018-11-13T07:52:46.090Z,58.46
2018-11-13T07:55:15.047Z,59.16
2018-11-13T07:57:43.311Z,58.54
2018-11-13T08:00:14.050Z,59.10
2018-11-13T08:02:43.289Z,60.08
2018-11-13T08:05:11.654Z,58.71
2018-11-13T08:07:39.403Z,57.13
2018-11-13T08:10:08.048Z,56.92
2018-11-13T08:12:35.906Z,57.90
2018-11-13T08:15:03.971Z,57.98
2018-11-13T08:17:31.716Z,56.95
2018-11-13T08:19:59.435Z,55.40
2018-11-13T08:22:27.212Z,53.89
2018-11-13T08:24:55.407Z,52.60
2018-11-13T08:27:23.347Z,50.91
2018-11-13T08:29:52.104Z,50.19
2018-11-13T08:32:19.852Z,49.29
2018-11-13T08:34:47.656Z,48.08
2018-11-13T08:37:15.435Z,47.59
2018-11-13T08:39:43.212Z,47.48
2018-11-13T08:42:11.020Z,47.32
2018-11-13T08:44:39.242Z,47.04
2018-11-13T08:47:07.427Z,45.88
2018-11-13T08:49:35.511Z,46.15
2018-11-13T08:52:03.799Z,46.24
2018-11-13T08:54:32.104Z,46.33
2018-11-13T08:57:00.559Z,47.51
2018-11-13T08:59:28.883Z,49.56
2018-11-13T09:01:57.348Z,50.70
2018-11-13T09:04:25.424Z,50.92
2018-11-13T09:06:53.719Z,50.63
2018-11-13T09:09:22.137Z,50.76
2018-11-13T09:11:50.666Z,50.02
2018-11-13T09:14:18.923Z,49.17
2018-11-13T09:16:47.257Z,50.10
2018-11-13T09:19:15.596Z,51.64
2018-11-13T09:21:43.764Z,50.70
2018-11-13T09:24:12.015Z,50.64
2018-11-13T09:26:40.270Z,50.21
2018-11-13T09:29:07.983Z,49.42
2018-11-13T09:31:36.118Z,47.42
2018-11-13T09:34:04.096Z,48.29
2018-11-13T09:36:32.562Z,48.26
2018-11-13T09:39:00.884Z,48.84
2018-11-13T09:41:29.086Z,47.29
2018-11-13T09:43:56.842Z,47.19
2018-11-13T09:46:24.588Z,46.91
2018-11-13T09:48:52.400Z,46.87
2018-11-13T09:51:20.182Z,44.61
2018-11-13T09:53:47.965Z,44.82
2018-11-13T09:56:15.824Z,47.29
2018-11-13T09:58:43.570Z,48.54
2018-11-13T10:01:12.140Z,46.61
2018-11-13T10:03:40.828Z,45.46
2018-11-13T10:06:08.439Z,46.97
2018-11-13T10:08:36.423Z,46.87
2018-11-13T10:11:04.667Z,47.41
2018-11-13T10:13:32.848Z,45.33
2018-11-13T10:16:01.292Z,44.82
2018-11-13T10:18:29.596Z,45.16
2018-11-13T10:20:57.605Z,44.68
2018-11-13T10:23:25.406Z,45.61
2018-11-13T10:25:53.750Z,47.42
2018-11-13T10:28:21.904Z,47.35
2018-11-13T10:30:49.875Z,48.56
2018-11-13T10:33:18.016Z,48.20
2018-11-13T10:35:46.325Z,47.77
2018-11-13T10:38:14.436Z,47.43
2018-11-13T10:40:42.824Z,45.02
2018-11-13T10:43:10.892Z,42.73
2018-11-13T10:45:39.166Z,43.77
2018-11-13T10:48:07.492Z,45.05
2018-11-13T10:50:35.776Z,46.27
2018-11-13T10:53:04.084Z,45.36
2018-11-13T10:55:32.248Z,44.94
2018-11-13T10:58:00.607Z,45.27
2018-11-13T11:00:34.331Z,46.17
2018-11-13T11:03:05.299Z,45.90
2018-11-13T11:05:33.651Z,45.50
2018-11-13T11:08:01.841Z,44.06
2018-11-13T11:10:30.159Z,44.31
2018-11-13T11:12:58.542Z,44.43
2018-11-13T11:15:26.699Z,44.87
2018-11-13T11:17:55.211Z,45.45
2018-11-13T11:20:23.038Z,45.82
2018-11-13T11:22:51.034Z,45.42
2018-11-13T11:25:18.823Z,43.68
2018-11-13T11:27:46.482Z,43.10
2018-11-13T11:30:15.420Z,42.99
2018-11-13T11:32:43.807Z,44.36
2018-11-13T11:35:12.139Z,44.30
2018-11-13T11:37:40.923Z,41.18
2018-11-13T11:40:09.838Z,40.84
2018-11-13T11:42:38.339Z,40.89
2018-11-13T11:45:08.278Z,41.86
2018-11-13T11:47:36.108Z,42.07
2018-11-13T11:50:04.470Z,41.25
2018-11-13T11:52:32.239Z,42.05
2018-11-13T11:55:00.049Z,41.95
2018-11-13T11:57:27.823Z,43.69
2018-11-13T11:59:55.596Z,41.14
2018-11-13T12:02:23.517Z,40.54
2018-11-13T12:04:51.327Z,41.02
2018-11-13T12:07:19.114Z,39.78
2018-11-13T12:09:46.867Z,42.13
2018-11-13T12:12:14.672Z,41.99
2018-11-13T12:14:42.421Z,41.94
2018-11-13T12:17:10.198Z,42.43
2018-11-13T12:19:37.959Z,44.74
2018-11-13T12:22:05.751Z,45.14
2018-11-13T12:24:33.517Z,44.63
2018-11-13T12:27:01.387Z,45.28
2018-11-13T12:29:29.148Z,44.13
2018-11-13T12:31:57.184Z,43.02
2018-11-13T12:34:24.951Z,46.04
2018-11-13T12:36:52.769Z,47.12
2018-11-13T12:39:20.503Z,44.46
2018-11-13T12:41:48.251Z,42.72
2018-11-13T12:44:15.984Z,43.18
2018-11-13T12:46:43.775Z,43.22
2018-11-13T12:49:11.550Z,45.40
2018-11-13T12:51:44.671Z,44.60
2018-11-13T12:54:12.483Z,46.68
2018-11-13T12:56:40.263Z,47.32
2018-11-13T12:59:08.016Z,46.82
2018-11-13T13:01:35.809Z,45.36
2018-11-13T13:04:03.691Z,44.59
2018-11-13T13:06:31.534Z,44.95
2018-11-13T13:08:59.255Z,45.94
2018-11-13T13:11:27.031Z,47.14
2018-11-13T13:14:00.176Z,47.53
2018-11-13T13:16:27.951Z,47.86
2018-11-13T13:18:55.746Z,48.65
2018-11-13T13:21:23.586Z,49.04
2018-11-13T13:23:51.444Z,49.98
2018-11-13T13:26:19.212Z,48.96
2018-11-13T13:28:47.010Z,48.92
2018-11-13T13:31:14.754Z,48.75
2018-11-13T13:33:42.575Z,49.04
2018-11-13T13:36:10.387Z,48.77
2018-11-13T13:38:38.500Z,48.53
2018-11-13T13:41:06.523Z,47.81
2018-11-13T13:43:34.952Z,49.30
2018-11-13T13:46:02.743Z,50.13
2018-11-13T13:48:30.507Z,49.46
2018-11-13T13:50:58.301Z,48.55
2018-11-13T13:53:26.667Z,48.54
2018-11-13T13:55:54.425Z,49.99
2018-11-13T13:58:23.151Z,49.32
2018-11-13T14:00:51.229Z,50.56
2018-11-13T14:03:18.840Z,51.87
2018-11-13T14:05:46.967Z,51.61
2018-11-13T14:08:15.436Z,53.00
2018-11-13T14:10:43.370Z,54.26
2018-11-13T14:13:11.592Z,54.29
2018-11-13T14:15:39.502Z,55.08
2018-11-13T14:18:07.396Z,55.24
2018-11-13T14:20:35.209Z,55.65
2018-11-13T14:23:03.059Z,54.96
2018-11-13T14:25:30.937Z,55.37
2018-11-13T14:27:59.101Z,54.85
2018-11-13T14:30:31.131Z,55.71
2018-11-13T14:33:01.590Z,55.77
2018-11-13T14:35:29.887Z,55.47
2018-11-13T14:37:58.528Z,55.85
2018-11-13T14:40:29.755Z,56.46
2018-11-13T14:42:58.096Z,57.02
2018-11-13T14:45:26.782Z,56.47
2018-11-13T14:47:54.944Z,56.70
2018-11-13T14:50:24.075Z,57.72
2018-11-13T14:52:52.235Z,57.87
2018-11-13T14:55:23.359Z,57.84
2018-11-13T14:57:51.402Z,57.66
2018-11-13T15:00:21.415Z,57.60
2018-11-13T15:02:49.713Z,57.47
2018-11-13T15:05:18.684Z,57.83
2018-11-13T15:07:47.569Z,58.56
2018-11-13T15:10:18.144Z,57.62
2018-11-13T15:12:45.963Z,57.08
2018-11-13T15:15:13.962Z,57.23
2018-11-13T15:17:42.816Z,57.86
2018-11-13T15:20:12.991Z,57.51
2018-11-13T15:22:41.614Z,57.11
2018-11-13T15:25:11.642Z,56.97
2018-11-13T15:27:39.903Z,57.45
2018-11-13T15:30:11.988Z,58.24
2018-11-13T15:32:40.548Z,57.53
2018-11-13T15:35:09.657Z,57.77
2018-11-13T15:37:37.403Z,58.45
2018-11-13T15:40:07.683Z,58.97
2018-11-13T15:42:35.554Z,58.80
2018-11-13T15:45:03.482Z,59.41
2018-11-13T15:47:31.359Z,59.36
2018-11-13T15:52:26.038Z,59.95
2018-11-13T15:54:53.766Z,59.87
2018-11-13T15:57:21.491Z,61.43
2018-11-13T15:59:49.246Z,61.64
2018-11-13T16:02:16.966Z,62.07
2018-11-13T16:04:44.735Z,61.22
2018-11-13T16:07:12.552Z,61.30
2018-11-13T16:09:40.356Z,61.57
2018-11-13T16:12:08.202Z,61.37
2018-11-13T16:14:36.020Z,61.31
2018-11-13T16:17:03.928Z,61.63
2018-11-13T16:19:31.662Z,62.02
2018-11-13T16:21:59.447Z,61.85
2018-11-13T16:24:27.200Z,61.19
2018-11-13T16:26:54.991Z,61.43
2018-11-13T16:29:22.907Z,61.30
2018-11-13T16:31:50.663Z,61.55
2018-11-13T16:34:25.349Z,62.25
2018-11-13T16:36:53.605Z,62.02
2018-11-13T16:39:22.180Z,61.74
2018-11-13T16:41:50.409Z,62.01
2018-11-13T16:44:18.391Z,61.64
2018-11-13T16:46:46.823Z,61.63
2018-11-13T16:49:14.976Z,61.73
2018-11-13T16:51:43.451Z,61.41
2018-11-13T16:54:11.743Z,61.89
2018-11-13T16:56:46.712Z,62.15
2018-11-13T16:59:14.815Z,62.52
2018-11-13T17:01:43.005Z,62.14
2018-11-13T17:04:11.879Z,62.92
2018-11-13T17:06:40.171Z,63.16
2018-11-13T17:09:09.864Z,63.37
2018-11-13T17:11:37.765Z,64.48
2018-11-13T17:14:05.572Z,63.98
2018-11-13T17:16:33.412Z,63.68
2018-11-13T17:19:01.234Z,64.02
2018-11-13T17:21:29.000Z,63.46
2018-11-13T17:23:56.785Z,63.49
2018-11-13T17:26:24.598Z,63.04
2018-11-13T17:28:52.387Z,63.69
2018-11-13T17:31:20.136Z,63.92
2018-11-13T17:33:47.936Z,64.56
2018-11-13T17:36:15.748Z,63.80
2018-11-13T17:38:43.503Z,64.25
2018-11-13T17:41:11.340Z,63.89
2018-11-13T17:43:39.151Z,64.79
2018-11-13T17:46:06.944Z,65.15
2018-11-13T17:48:34.766Z,65.67
2018-11-13T17:51:02.488Z,65.79
2018-11-13T17:53:30.283Z,65.68
2018-11-13T17:55:58.052Z,65.60
2018-11-13T17:58:25.860Z,65.90
2018-11-13T18:00:53.623Z,66.04
2018-11-13T18:03:21.455Z,66.55
2018-11-13T18:05:49.312Z,66.73
2018-11-13T18:08:17.059Z,67.63
2018-11-13T18:10:45.848Z,67.63
2018-11-13T18:13:14.030Z,67.89
2018-11-13T18:15:41.803Z,68.23
2018-11-13T18:18:10.225Z,68.14
2018-11-13T18:20:39.011Z,68.71
2018-11-13T18:23:08.033Z,67.83
2018-11-13T18:25:36.124Z,68.71
2018-11-13T18:28:04.084Z,67.90
2018-11-13T18:30:33.372Z,68.46
2018-11-13T18:33:01.948Z,68.02
2018-11-13T18:35:31.111Z,68.33
2018-11-13T18:37:59.898Z,68.83
2018-11-13T18:40:28.096Z,68.29
2018-11-13T18:42:57.310Z,68.79
2018-11-13T18:45:27.591Z,68.40
2018-11-13T18:47:55.447Z,68.33
2018-11-13T18:50:27.552Z,68.64
2018-11-13T18:52:55.343Z,69.10
2018-11-13T18:55:23.163Z,68.82
2018-11-13T18:57:51.046Z,68.96
2018-11-13T19:00:24.004Z,69.11
2018-11-13T19:02:51.851Z,68.72
2018-11-13T19:05:19.950Z,69.46
2018-11-13T19:07:47.788Z,68.71
2018-11-13T19:10:20.397Z,69.32
2018-11-13T19:12:48.263Z,69.06
2018-11-13T19:15:16.023Z,69.15
2018-11-13T19:17:43.770Z,68.58
2018-11-13T19:20:16.957Z,68.29
2018-11-13T19:22:44.789Z,68.90
2018-11-13T19:25:17.016Z,69.12
2018-11-13T19:27:45.733Z,69.62
2018-11-13T19:30:14.739Z,69.99
2018-11-13T19:32:42.882Z,70.92
2018-11-13T19:35:11.297Z,70.49
2018-11-13T19:37:39.465Z,71.08
2018-11-13T19:40:10.042Z,72.64
2018-11-13T19:42:38.211Z,71.69
2018-11-13T19:45:06.969Z,71.46
2018-11-13T19:47:35.259Z,71.99
2018-11-13T19:50:03.708Z,72.18
2018-11-13T19:52:31.960Z,72.73
2018-11-13T19:55:00.529Z,72.74
2018-11-13T19:57:28.709Z,73.53
2018-11-13T19:59:57.610Z,73.82
2018-11-13T20:02:26.092Z,72.94
2018-11-13T20:04:54.382Z,73.08
2018-11-13T20:07:22.827Z,73.57
2018-11-13T20:09:51.167Z,73.58
2018-11-13T20:12:19.595Z,73.90
2018-11-13T20:14:48.144Z,73.62
2018-11-13T20:17:16.419Z,73.61
2018-11-13T20:19:44.722Z,72.93
2018-11-13T20:22:12.906Z,74.13
2018-11-13T20:24:41.253Z,73.20
2018-11-13T20:27:09.443Z,73.10
2018-11-13T20:29:37.905Z,73.45
2018-11-13T20:32:06.048Z,72.89
2018-11-13T20:34:34.263Z,73.72
2018-11-13T20:37:02.357Z,73.24
2018-11-13T20:39:30.695Z,73.08
2018-11-13T20:41:59.136Z,73.71
2018-11-13T20:44:27.237Z,73.66
2018-11-13T20:46:55.700Z,73.99
2018-11-13T20:49:23.986Z,73.66
2018-11-13T20:51:52.183Z,73.39
2018-11-13T20:54:20.322Z,74.08
2018-11-13T20:56:48.550Z,74.12
2018-11-13T20:59:17.064Z,74.27
2018-11-13T21:01:45.181Z,74.29
2018-11-13T21:04:13.625Z,74.26
2018-11-13T21:06:41.827Z,74.82
2018-11-13T21:09:09.784Z,74.46
2018-11-13T21:11:38.031Z,74.34
2018-11-13T21:14:06.324Z,74.61
2018-11-13T21:16:35.032Z,75.05
2018-11-13T21:19:03.072Z,74.74
2018-11-13T21:21:31.128Z,74.38
2018-11-13T21:23:59.794Z,74.59
2018-11-13T21:26:27.807Z,74.86
2018-11-13T21:28:55.927Z,75.59
2018-11-13T21:31:23.700Z,75.51
2018-11-13T21:33:51.653Z,75.83
2018-11-13T21:36:19.393Z,75.38
2018-11-13T21:38:47.192Z,75.21
2018-11-13T21:41:14.950Z,74.54
2018-11-13T21:43:43.347Z,74.87
2018-11-13T21:46:11.892Z,75.64
2018-11-13T21:48:40.075Z,75.58
2018-11-13T21:51:08.166Z,75.29
2018-11-13T21:53:36.507Z,75.04
2018-11-13T21:56:04.691Z,75.32
2018-11-13T21:58:32.795Z,75.05
2018-11-13T22:01:01.080Z,75.55
2018-11-13T22:03:29.356Z,76.23
2018-11-13T22:05:57.922Z,75.99
2018-11-13T22:08:26.234Z,75.53
2018-11-13T22:10:54.358Z,76.31
2018-11-13T22:13:22.436Z,76.40
2018-11-13T22:15:50.977Z,76.09
2018-11-13T22:18:19.236Z,75.82
2018-11-13T22:20:47.686Z,75.93
2018-11-13T22:23:16.011Z,77.06
2018-11-13T22:25:44.228Z,77.29
2018-11-13T22:28:12.781Z,76.25
2018-11-13T22:30:40.848Z,76.39
2018-11-13T22:33:09.272Z,76.30
2018-11-13T22:35:37.564Z,76.25
2018-11-13T22:38:06.046Z,76.13
2018-11-13T22:40:34.383Z,76.19
2018-11-13T22:43:02.584Z,76.32
2018-11-13T22:45:30.871Z,76.46
2018-11-13T22:47:59.233Z,76.02
2018-11-13T22:50:34.230Z,76.58
2018-11-13T22:53:02.082Z,76.87
2018-11-13T22:55:29.862Z,76.63
2018-11-13T22:57:58.928Z,76.78
2018-11-13T23:00:36.498Z,77.03
2018-11-13T23:03:05.682Z,76.61
2018-11-13T23:05:33.430Z,76.95
2018-11-13T23:08:01.210Z,76.68
2018-11-13T23:10:29.028Z,75.93
2018-11-13T23:12:56.847Z,76.22
2018-11-13T23:15:24.535Z,76.70
2018-11-13T23:17:53.063Z,77.00
2018-11-13T23:20:21.230Z,77.12
2018-11-13T23:22:50.374Z,77.63
2018-11-13T23:25:19.320Z,77.59
2018-11-13T23:27:48.783Z,77.20
2018-11-13T23:30:21.534Z,76.69
2018-11-13T23:32:50.148Z,76.47
2018-11-13T23:35:18.403Z,76.26
2018-11-13T23:37:48.794Z,76.79
2018-11-13T23:40:18.066Z,76.39
2018-11-13T23:42:46.560Z,76.09
2018-11-13T23:45:15.806Z,76.54
2018-11-13T23:47:44.308Z,76.65
2018-11-13T23:50:12.803Z,76.37
2018-11-13T23:52:41.038Z,76.50
2018-11-13T23:55:10.324Z,76.46
2018-11-13T23:57:38.780Z,76.06
